createdAt,value
2022-12-01T00:05:38.537Z,1.00
2022-12-01T00:16:10.808Z,0.90
2022-12-01T00:26:32.333Z,0.90
2022-12-01T00:36:55.181Z,1.00
2022-12-01T00:47:18.006Z,1.00
2022-12-01T00:57:41.255Z,1.10
2022-12-01T01:08:02.759Z,1.10
2022-12-01T01:18:26.048Z,1.00
2022-12-01T01:28:48.122Z,1.00
2022-12-01T01:39:11.459Z,0.90
2022-12-01T01:49:33.211Z,0.80
2022-12-01T02:00:00.296Z,0.80
2022-12-01T02:10:25.279Z,0.70
2022-12-01T02:21:17.289Z,0.60
2022-12-01T02:31:44.511Z,0.70
2022-12-01T02:42:32.120Z,0.60
2022-12-01T03:03:34.681Z,0.50
2022-12-01T03:14:09.385Z,0.50
2022-12-01T03:24:33.723Z,0.50
2022-12-01T03:34:58.396Z,0.50
2022-12-01T03:45:27.960Z,0.60
2022-12-01T03:55:55.776Z,0.50
2022-12-01T04:06:19.199Z,0.60
2022-12-01T04:16:42.410Z,0.60
2022-12-01T04:27:05.279Z,0.50
2022-12-01T04:37:26.650Z,0.40
2022-12-01T04:47:51.296Z,0.50
2022-12-01T04:58:12.908Z,0.50
2022-12-01T05:08:37.690Z,0.50
2022-12-01T05:19:19.271Z,0.60
2022-12-01T05:29:42.180Z,0.50
2022-12-01T05:40:03.790Z,0.50
2022-12-01T05:50:28.244Z,0.50
2022-12-01T06:00:50.512Z,0.50
2022-12-01T06:11:15.965Z,0.40
2022-12-01T06:21:38.800Z,0.50
2022-12-01T06:32:02.042Z,0.50
2022-12-01T06:42:24.112Z,0.50
2022-12-01T06:52:47.827Z,0.40
2022-12-01T07:03:12.429Z,0.40
2022-12-01T07:13:36.364Z,0.70
2022-12-01T07:23:58.238Z,0.60
2022-12-01T07:34:22.806Z,0.80
2022-12-01T07:44:46.407Z,0.70
2022-12-01T07:55:09.920Z,0.70
2022-12-01T08:05:31.769Z,0.90
2022-12-01T08:15:57.269Z,0.70
2022-12-01T08:26:20.568Z,0.80
2022-12-01T08:36:53.398Z,0.80
2022-12-01T08:47:18.724Z,1.00
2022-12-01T08:57:42.479Z,0.80
2022-12-01T09:08:21.626Z,1.00
2022-12-01T09:18:45.942Z,1.00
2022-12-01T09:29:09.782Z,1.20
2022-12-01T09:39:32.563Z,1.10
2022-12-01T09:50:00.199Z,1.10
2022-12-01T10:00:25.385Z,1.30
2022-12-01T10:10:48.902Z,1.20
2022-12-01T10:21:20.793Z,1.10
2022-12-01T10:31:53.718Z,1.10
2022-12-01T10:42:20.265Z,1.20
2022-12-01T10:52:42.977Z,1.20
2022-12-01T11:03:06.436Z,1.10
2022-12-01T11:13:30.382Z,1.20
2022-12-01T11:23:54.689Z,1.20
2022-12-01T11:34:20.974Z,1.30
2022-12-01T11:44:52.085Z,1.30
2022-12-01T11:55:22.841Z,1.50
2022-12-01T12:06:31.939Z,1.60
2022-12-01T12:16:59.770Z,1.40
2022-12-01T12:27:38.640Z,1.40
2022-12-01T12:38:08.989Z,1.30
2022-12-01T12:49:11.588Z,1.40
2022-12-01T12:59:35.243Z,1.70
2022-12-01T13:10:01.679Z,1.50
2022-12-01T13:20:27.584Z,1.60
2022-12-01T13:31:03.281Z,1.70
2022-12-01T13:41:28.296Z,1.60
2022-12-01T13:52:28.074Z,1.90
2022-12-01T14:03:38.561Z,1.70
2022-12-01T14:14:11.547Z,1.80
2022-12-01T14:24:36.019Z,1.70
2022-12-01T14:35:14.867Z,1.70
2022-12-01T14:45:47.760Z,1.90
2022-12-01T14:56:15.039Z,1.60
2022-12-01T15:06:37.645Z,1.70
2022-12-01T15:18:41.002Z,1.70
2022-12-01T15:41:27.488Z,1.40
2022-12-01T15:51:33.090Z,1.40
2022-12-01T16:02:02.606Z,1.30
2022-12-01T16:25:49.962Z,1.20
2022-12-01T17:00:37.562Z,1.00
2022-12-01T18:08:11.013Z,0.90
2022-12-01T18:18:32.952Z,1.10
2022-12-01T18:28:57.201Z,1.00
2022-12-01T18:39:19.040Z,1.20
2022-12-01T18:49:43.690Z,1.10
2022-12-01T19:00:10.066Z,1.20
2022-12-01T19:10:33.348Z,1.10
2022-12-01T19:20:54.778Z,1.20
2022-12-01T19:31:20.311Z,1.20
2022-12-01T19:41:42.186Z,1.30
2022-12-01T19:52:06.591Z,1.20
2022-12-01T20:02:29.499Z,1.20
2022-12-01T20:12:53.722Z,1.40
2022-12-01T20:23:15.534Z,1.30
2022-12-01T20:33:38.968Z,1.40
2022-12-01T20:44:06.696Z,1.40
2022-12-01T20:54:31.123Z,1.40
2022-12-01T21:04:56.338Z,1.50
2022-12-01T21:15:26.682Z,1.50
2022-12-01T21:25:51.184Z,1.50
2022-12-01T21:36:18.822Z,1.50
2022-12-01T21:46:42.267Z,1.50
2022-12-01T21:57:24.838Z,1.50
2022-12-01T22:07:46.390Z,1.60
2022-12-01T22:18:20.184Z,1.50
2022-12-01T22:28:43.901Z,1.60
2022-12-01T22:39:25.023Z,1.60
2022-12-01T22:49:47.021Z,1.60
2022-12-01T23:00:17.775Z,1.60
2022-12-01T23:10:40.534Z,1.60
2022-12-01T23:21:03.928Z,1.60
2022-12-01T23:31:26.292Z,1.60
2022-12-01T23:41:51.224Z,1.50
2022-12-01T23:52:17.339Z,1.60
